Time;durP1;ratioP1;P1;durP2;ratioP2;P2;SDS_P1;SDS_P2;PMS_P1;PMS_P2;Temp;Humidity;BMP_temperature;BMP_pressure;BME280_temperature;BME280_humidity;BME280_pressure;Samples;Min_cycle;Max_cycle;Signal;HPM_P1;HPM_P2
2022/09/15 00:01:29;;;;;;;30.17;15.73;;;14.00;92.00;;;;;;5054714;28;20067;-39
2022/09/15 00:03:55;;;;;;;30.77;15.20;;;14.00;92.00;;;;;;5054509;28;20103;-38
2022/09/15 00:06:20;;;;;;;23.02;13.90;;;14.10;92.00;;;;;;5054550;28;20465;-40
2022/09/15 00:08:46;;;;;;;25.13;14.93;;;14.00;92.00;;;;;;5054649;28;20209;-39
2022/09/15 00:11:21;;;;;;;25.15;14.05;;;14.00;92.00;;;;;;5054496;28;20055;-38
2022/09/15 00:13:48;;;;;;;27.60;14.98;;;14.00;92.10;;;;;;5054456;28;20445;-38
2022/09/15 00:16:14;;;;;;;23.95;13.88;;;14.10;92.00;;;;;;5054393;28;20493;-40
2022/09/15 00:18:40;;;;;;;24.50;13.48;;;14.10;91.80;;;;;;5054527;28;20087;-40
2022/09/15 00:21:14;;;;;;;24.50;15.00;;;14.10;91.80;;;;;;5054373;28;20410;-39
2022/09/15 00:23:40;;;;;;;21.60;13.07;;;14.10;91.80;;;;;;5054370;28;20033;-39
2022/09/15 00:26:11;;;;;;;27.77;13.93;;;14.10;91.80;;;;;;5054725;28;20449;-38
2022/09/15 00:28:37;;;;;;;25.65;12.75;;;14.10;91.70;;;;;;5054632;28;20067;-39
2022/09/15 00:31:06;;;;;;;25.55;13.32;;;14.10;91.80;;;;;;5054593;28;20021;-39
2022/09/15 00:33:32;;;;;;;33.10;15.15;;;14.20;91.60;;;;;;5054076;28;20064;-38
2022/09/15 00:36:02;;;;;;;27.80;14.32;;;14.00;91.50;;;;;;5054141;28;20044;-40
2022/09/15 00:38:28;;;;;;;;;;;13.90;91.60;;;;;;5054973;28;20337;-39
2022/09/15 00:40:56;;;;;;;21.48;12.30;;;13.80;92.00;;;;;;5054020;28;19905;-39
2022/09/15 00:43:46;;;;;;;25.95;15.65;;;13.70;92.10;;;;;;5054134;28;20082;-38
2022/09/15 00:46:13;;;;;;;;;;;13.60;92.30;;;;;;5054350;28;20036;-39
2022/09/15 00:48:44;;;;;;;20.45;12.57;;;13.50;92.50;;;;;;5053902;28;20042;-38
2022/09/15 00:51:12;;;;;;;29.95;12.45;;;13.40;92.60;;;;;;5054075;28;20426;-39
2022/09/15 00:53:38;;;;;;;24.83;13.45;;;13.30;92.90;;;;;;5053758;28;20483;-46
2022/09/15 00:56:08;;;;;;;25.85;13.10;;;13.30;93.10;;;;;;5053757;28;20029;-38
2022/09/15 00:58:47;;;;;;;24.60;14.05;;;13.20;93.20;;;;;;5052332;28;20025;-41
2022/09/15 01:01:14;;;;;;;25.80;14.20;;;13.20;93.40;;;;;;5053777;28;20025;-39
2022/09/15 01:03:40;;;;;;;23.92;14.05;;;13.20;93.50;;;;;;5053368;28;20116;-39
2022/09/15 01:06:31;;;;;;;26.90;15.35;;;13.10;93.60;;;;;;5053772;28;20095;-40
2022/09/15 01:09:27;;;;;;;24.73;12.77;;;13.10;93.60;;;;;;5053755;28;20044;-38
2022/09/15 01:11:52;;;;;;;27.05;14.93;;;13.00;93.70;;;;;;5053131;28;20032;-38
2022/09/15 01:14:18;;;;;;;24.65;14.57;;;13.00;93.90;;;;;;5053168;28;20538;-42
2022/09/15 01:17:05;;;;;;;27.73;13.63;;;12.90;93.90;;;;;;5052047;28;20040;-38
2022/09/15 01:20:08;;;;;;;27.98;14.70;;;12.90;93.90;;;;;;5053622;28;20386;-39
2022/09/15 01:23:00;;;;;;;32.83;15.25;;;12.90;94.10;;;;;;5053210;28;20029;-39
2022/09/15 01:25:34;;;;;;;30.38;13.93;;;12.80;94.00;;;;;;5052372;28;20120;-47
2022/09/15 01:28:17;;;;;;;26.25;13.98;;;12.90;94.00;;;;;;5053245;28;20056;-47
2022/09/15 01:31:03;;;;;;;24.52;14.68;;;12.80;94.10;;;;;;5053321;28;20029;-47
2022/09/15 01:33:53;;;;;;;24.67;14.55;;;12.80;94.00;;;;;;5036757;28;20025;-48
2022/09/15 01:36:36;;;;;;;26.63;15.73;;;12.80;94.10;;;;;;5053184;28;20029;-48
2022/09/15 01:39:14;;;;;;;27.83;14.27;;;12.70;94.10;;;;;;5053100;28;20103;-47
2022/09/15 01:41:55;;;;;;;23.65;12.55;;;12.60;94.20;;;;;;5053191;28;20107;-47
2022/09/15 01:44:29;;;;;;;24.98;13.13;;;12.50;94.10;;;;;;5053534;28;20029;-49
2022/09/15 01:46:59;;;;;;;24.92;13.95;;;12.40;94.20;;;;;;5053015;28;20021;-47
2022/09/15 01:49:32;;;;;;;26.02;13.73;;;12.50;94.30;;;;;;5053249;28;20376;-46
2022/09/15 01:51:59;;;;;;;27.23;12.82;;;12.50;94.30;;;;;;5053482;28;20029;-47
2022/09/15 01:54:29;;;;;;;24.73;13.10;;;12.50;94.30;;;;;;5051530;28;20028;-46
2022/09/15 01:56:55;;;;;;;27.98;14.35;;;12.50;94.30;;;;;;5052967;28;20017;-46
2022/09/15 01:59:21;;;;;;;24.08;12.43;;;12.50;94.30;;;;;;5052904;28;20025;-47
2022/09/15 02:02:00;;;;;;;21.63;11.25;;;12.50;94.30;;;;;;5052893;28;20481;-47
2022/09/15 02:04:40;;;;;;;24.92;11.98;;;12.50;94.30;;;;;;5052855;28;20041;-46
2022/09/15 02:07:19;;;;;;;22.17;12.57;;;12.60;94.30;;;;;;5052928;28;20021;-46
2022/09/15 02:09:53;;;;;;;18.45;11.57;;;12.50;94.20;;;;;;5053002;28;20465;-46
2022/09/15 02:12:32;;;;;;;21.27;12.30;;;12.60;94.20;;;;;;5053427;28;20357;-47
2022/09/15 02:15:02;;;;;;;21.98;12.07;;;12.60;94.20;;;;;;5053776;28;20410;-46
2022/09/15 02:17:31;;;;;;;23.63;11.73;;;12.60;94.20;;;;;;5052841;28;20025;-46
2022/09/15 02:20:08;;;;;;;19.85;12.68;;;12.60;94.30;;;;;;5052653;28;20017;-47
2022/09/15 02:22:39;;;;;;;22.98;12.65;;;12.70;94.30;;;;;;5052596;28;20036;-47
2022/09/15 02:25:06;;;;;;;21.38;13.05;;;12.80;94.20;;;;;;5053293;28;20029;-48
2022/09/15 02:27:44;;;;;;;19.58;11.15;;;12.60;94.00;;;;;;5056497;28;20025;-47
2022/09/15 02:30:14;;;;;;;21.63;11.70;;;12.60;94.00;;;;;;5056973;28;20469;-48
2022/09/15 02:32:50;;;;;;;16.92;10.73;;;12.70;94.10;;;;;;5056664;28;20032;-47
2022/09/15 02:35:16;;;;;;;18.13;11.80;;;12.80;94.20;;;;;;5056507;28;20052;-47
2022/09/15 02:37:42;;;;;;;21.95;12.70;;;12.80;94.10;;;;;;5055413;28;20037;-47
2022/09/15 02:40:09;;;;;;;23.10;11.60;;;12.80;93.90;;;;;;5056581;28;20485;-48
2022/09/15 02:42:35;;;;;;;20.95;12.63;;;12.80;93.90;;;;;;5055373;28;20059;-48
2022/09/15 02:45:02;;;;;;;18.35;12.63;;;12.90;93.90;;;;;;5056583;28;20469;-47
2022/09/15 02:47:28;;;;;;;16.95;10.32;;;12.90;93.90;;;;;;5056487;28;20095;-48
2022/09/15 02:49:54;;;;;;;15.85;9.80;;;12.90;93.80;;;;;;5056054;28;20025;-46
2022/09/15 02:52:20;;;;;;;18.77;10.70;;;13.00;93.70;;;;;;5055910;28;20485;-46
2022/09/15 02:54:46;;;;;;;17.98;11.27;;;13.00;93.80;;;;;;5055983;28;20099;-47
2022/09/15 02:57:13;;;;;;;24.05;11.98;;;13.10;93.70;;;;;;5055851;28;20100;-46
2022/09/15 03:02:24;;;;;;;23.75;12.45;;;13.30;93.20;;;;;;5056372;28;20082;-48
2022/09/15 03:04:50;;;;;;;24.00;13.52;;;13.30;93.10;;;;;;5055856;28;20416;-46
2022/09/15 03:07:17;;;;;;;27.17;12.48;;;13.40;93.10;;;;;;5055948;28;20033;-47
2022/09/15 03:09:43;;;;;;;22.13;13.25;;;13.50;92.80;;;;;;5055821;28;20033;-47
2022/09/15 03:12:09;;;;;;;28.38;15.65;;;13.60;92.60;;;;;;5055701;28;20022;-47
2022/09/15 03:14:35;;;;;;;34.72;15.07;;;13.80;92.40;;;;;;5055475;28;20123;-48
2022/09/15 03:17:04;;;;;;;31.17;15.07;;;13.80;92.00;;;;;;5055516;28;20033;-47
2022/09/15 03:19:30;;;;;;;26.40;15.82;;;13.90;91.80;;;;;;5055667;28;20025;-48
2022/09/15 03:21:56;;;;;;;26.30;14.32;;;13.90;91.70;;;;;;5054335;28;20385;-47
2022/09/15 03:24:22;;;;;;;28.23;15.70;;;13.80;91.90;;;;;;5054233;28;20111;-47
2022/09/15 03:26:48;;;;;;;35.83;16.70;;;13.80;92.00;;;;;;5055582;28;20440;-47
2022/09/15 03:29:14;;;;;;;24.58;15.23;;;13.90;91.90;;;;;;5055841;28;20025;-47
2022/09/15 03:31:40;;;;;;;26.80;15.65;;;13.80;91.80;;;;;;5055771;28;20029;-47
2022/09/15 03:34:05;;;;;;;27.80;16.05;;;13.80;91.80;;;;;;5055373;28;20032;-47
2022/09/15 03:36:31;;;;;;;24.10;13.35;;;13.90;92.00;;;;;;5054936;28;20021;-47
2022/09/15 03:38:57;;;;;;;31.25;15.35;;;13.90;91.90;;;;;;5055497;28;20497;-47
2022/09/15 03:41:24;;;;;;;32.78;14.15;;;13.90;91.90;;;;;;5055647;28;20382;-39
2022/09/15 03:43:51;;;;;;;28.17;15.50;;;13.90;91.80;;;;;;5055229;28;20446;-42
2022/09/15 03:46:17;;;;;;;23.67;14.98;;;13.90;91.80;;;;;;5055262;28;20017;-38
2022/09/15 03:48:43;;;;;;;24.38;14.02;;;13.90;91.70;;;;;;5054639;28;20070;-39
2022/09/15 03:51:09;;;;;;;26.73;14.38;;;13.70;91.80;;;;;;5055097;28;20029;-39
2022/09/15 03:53:37;;;;;;;27.73;14.18;;;13.70;92.10;;;;;;5055111;28;20029;-38
2022/09/15 03:56:30;;;;;;;27.77;15.20;;;13.70;92.00;;;;;;5055892;28;20385;-38
2022/09/15 03:58:56;;;;;;;29.92;14.57;;;13.60;92.30;;;;;;5055206;28;20493;-38
2022/09/15 04:01:22;;;;;;;31.40;15.63;;;13.70;92.40;;;;;;5055045;28;20023;-39
2022/09/15 04:03:49;;;;;;;29.10;13.82;;;13.70;92.50;;;;;;5054637;28;20135;-39
2022/09/15 04:06:15;;;;;;;29.23;16.35;;;13.70;92.30;;;;;;5055375;28;20365;-38
2022/09/15 04:08:41;;;;;;;28.15;14.90;;;13.80;92.30;;;;;;5054805;28;20021;-38
2022/09/15 04:11:09;;;;;;;30.10;14.60;;;13.80;92.20;;;;;;5054787;28;20021;-38
2022/09/15 04:13:36;;;;;;;25.42;14.02;;;13.80;92.10;;;;;;5054711;28;20040;-38
2022/09/15 04:16:08;;;;;;;27.65;14.75;;;13.80;92.30;;;;;;5053371;28;20084;-40
2022/09/15 04:18:34;;;;;;;25.40;13.73;;;13.80;92.20;;;;;;5055055;28;20029;-39
2022/09/15 04:21:02;;;;;;;25.55;15.25;;;13.80;92.20;;;;;;5054728;28;20109;-38
2022/09/15 04:23:28;;;;;;;27.60;13.77;;;13.80;92.20;;;;;;5054766;28;20032;-38
2022/09/15 04:25:56;;;;;;;28.33;14.30;;;13.80;92.40;;;;;;5054465;28;20024;-39
2022/09/15 04:28:22;;;;;;;27.58;13.95;;;13.80;92.30;;;;;;5054395;28;20501;-38
2022/09/15 04:30:48;;;;;;;25.00;13.73;;;13.90;92.30;;;;;;5054358;28;20024;-38
2022/09/15 04:33:13;;;;;;;33.80;15.20;;;14.00;92.30;;;;;;5054279;28;20025;-39
2022/09/15 04:35:39;;;;;;;21.85;13.07;;;14.00;92.20;;;;;;5054674;28;20067;-39
2022/09/15 04:38:05;;;;;;;19.95;12.65;;;14.00;92.00;;;;;;5054311;28;20036;-39
2022/09/15 04:40:31;;;;;;;20.27;13.45;;;14.00;92.00;;;;;;5054256;28;20071;-39
2022/09/15 04:42:56;;;;;;;20.83;14.07;;;14.10;92.00;;;;;;5052979;28;20021;-39
2022/09/15 04:45:22;;;;;;;28.52;15.75;;;14.10;92.00;;;;;;5054399;28;20028;-40
2022/09/15 04:47:50;;;;;;;26.80;14.93;;;14.20;91.80;;;;;;5053670;28;20021;-39
2022/09/15 04:50:15;;;;;;;30.08;14.50;;;14.20;91.50;;;;;;5053074;28;20037;-39
2022/09/15 04:52:41;;;;;;;32.15;16.13;;;14.20;91.50;;;;;;5054298;28;20043;-40
2022/09/15 12:28:38;;;;;;;7.80;1.05;;;18.50;66.20;;;;;;5110784;27;20852;-39
2022/09/15 12:31:13;;;;;;;7.20;1.20;;;18.50;65.10;;;;;;5110461;28;20038;-39
2022/09/15 12:33:42;;;;;;;4.07;1.48;;;18.30;66.30;;;;;;5110638;28;20540;-39
2022/09/15 18:05:35;;;;;;;6.57;1.13;;;15.00;72.30;;;;;;5131792;27;20510;-40
2022/09/15 18:08:03;;;;;;;4.88;1.15;;;15.10;71.90;;;;;;5131485;27;20033;-40
2022/09/15 18:10:32;;;;;;;9.38;1.63;;;15.20;71.70;;;;;;5131087;27;20058;-39
2022/09/15 18:12:58;;;;;;;5.72;1.17;;;15.30;71.50;;;;;;5131412;27;20016;-39
2022/09/15 18:15:26;;;;;;;8.00;1.25;;;15.30;70.80;;;;;;5131330;27;20080;-39
2022/09/15 18:17:55;;;;;;;3.95;1.10;;;15.40;70.30;;;;;;5131127;28;20026;-39
2022/09/15 18:20:24;;;;;;;5.90;1.27;;;15.50;70.20;;;;;;5131097;27;20510;-38
2022/09/15 18:22:50;;;;;;;8.57;1.52;;;15.60;70.10;;;;;;5130844;27;20026;-38
2022/09/15 18:25:29;;;;;;;8.70;2.85;;;15.70;69.30;;;;;;5129449;28;20035;-40
2022/09/15 18:27:56;;;;;;;6.50;2.13;;;15.70;68.80;;;;;;5131171;27;20379;-38
2022/09/15 18:30:24;;;;;;;3.33;1.35;;;15.80;68.30;;;;;;5130763;27;20074;-39
2022/09/15 18:32:50;;;;;;;3.40;1.20;;;15.80;68.30;;;;;;5130671;27;20022;-39
2022/09/15 18:35:18;;;;;;;8.77;2.15;;;15.80;68.00;;;;;;5130589;27;20468;-39
2022/09/15 18:37:45;;;;;;;5.03;1.30;;;15.80;67.80;;;;;;5130678;27;20031;-38
2022/09/15 18:40:13;;;;;;;1.45;0.75;;;15.70;69.20;;;;;;5130803;27;20084;-40
2022/09/15 18:42:40;;;;;;;2.08;1.00;;;15.60;70.00;;;;;;5131088;27;20050;-38
2022/09/15 18:45:08;;;;;;;3.75;1.45;;;15.30;71.50;;;;;;5130663;27;20336;-38
2022/09/15 18:47:35;;;;;;;5.47;1.48;;;15.10;73.30;;;;;;5130357;27;20020;-40
2022/09/15 18:50:02;;;;;;;3.50;1.13;;;15.00;74.40;;;;;;5130747;27;20400;-38
2022/09/15 18:52:28;;;;;;;3.10;1.30;;;14.80;74.60;;;;;;5130647;27;20486;-38
2022/09/15 18:54:53;;;;;;;3.22;1.08;;;14.80;75.00;;;;;;5130324;27;20030;-38
2022/09/15 18:57:21;;;;;;;2.55;1.40;;;14.80;75.20;;;;;;5130453;28;20025;-40
2022/09/15 18:59:47;;;;;;;5.75;1.40;;;14.90;74.70;;;;;;5131261;27;20080;-38
2022/09/15 19:02:13;;;;;;;4.28;1.63;;;14.90;74.90;;;;;;5130655;27;20031;-39
2022/09/15 19:04:40;;;;;;;4.22;0.80;;;15.00;74.80;;;;;;5128697;27;20443;-38
2022/09/15 19:07:06;;;;;;;5.45;0.98;;;14.90;74.80;;;;;;5130197;27;20043;-38
2022/09/15 19:09:32;;;;;;;6.78;1.60;;;15.00;74.90;;;;;;5128858;27;20090;-38
2022/09/15 19:11:58;;;;;;;7.82;1.60;;;15.00;74.70;;;;;;5129326;28;20419;-39
2022/09/15 19:14:27;;;;;;;3.28;1.00;;;15.10;74.60;;;;;;5128719;28;20031;-39
2022/09/15 19:16:52;;;;;;;3.72;1.35;;;15.00;74.70;;;;;;5116585;27;20027;-39
2022/09/15 19:19:18;;;;;;;1.83;1.00;;;15.00;74.60;;;;;;5116491;28;20564;-39
2022/09/15 19:21:44;;;;;;;3.70;1.42;;;15.00;74.40;;;;;;5116618;28;20538;-41
2022/09/15 19:24:09;;;;;;;3.70;1.23;;;15.00;74.00;;;;;;5114717;28;20024;-39
2022/09/15 19:26:36;;;;;;;6.22;1.40;;;15.10;73.10;;;;;;5116026;28;20024;-38
2022/09/15 19:29:03;;;;;;;6.95;1.20;;;15.10;72.50;;;;;;5115829;28;20023;-38
2022/09/15 19:31:29;;;;;;;1.92;1.30;;;15.10;72.70;;;;;;5115514;28;20044;-38
2022/09/15 19:33:55;;;;;;;6.88;1.00;;;15.10;72.20;;;;;;5114549;28;20112;-39
2022/09/15 19:36:21;;;;;;;4.20;1.77;;;15.10;72.60;;;;;;5115554;28;20455;-39
2022/09/15 19:38:47;;;;;;;2.25;1.17;;;15.00;72.70;;;;;;5115646;28;20081;-39
2022/09/15 19:41:15;;;;;;;3.85;1.88;;;15.00;72.80;;;;;;5114274;28;20055;-40
2022/09/15 19:43:41;;;;;;;9.23;1.88;;;15.00;72.80;;;;;;5097039;28;20356;-39
2022/09/15 19:46:16;;;;;;;2.90;1.83;;;14.90;72.90;;;;;;5114292;28;20033;-38
2022/09/15 19:48:42;;;;;;;3.65;1.20;;;14.90;73.10;;;;;;5115678;28;20096;-40
2022/09/15 19:51:09;;;;;;;6.20;2.65;;;14.90;73.30;;;;;;5114295;28;20152;-39
2022/09/15 19:53:35;;;;;;;4.38;1.45;;;14.90;73.00;;;;;;5115646;28;20024;-38
2022/09/15 19:56:02;;;;;;;10.68;1.33;;;15.00;72.90;;;;;;5115818;28;20476;-38
2022/09/15 19:58:28;;;;;;;4.78;2.28;;;15.00;73.20;;;;;;5114317;28;20096;-40
2022/09/15 20:00:54;;;;;;;3.72;1.48;;;14.80;73.40;;;;;;5115732;28;20106;-38
2022/09/15 20:03:25;;;;;;;2.75;0.98;;;14.80;73.90;;;;;;5115483;28;20383;-39
2022/09/15 20:05:53;;;;;;;6.03;3.50;;;14.80;74.30;;;;;;5114965;28;20023;-39
2022/09/15 20:08:19;;;;;;;2.50;0.98;;;14.70;74.60;;;;;;5115629;28;20036;-39
2022/09/15 20:10:46;;;;;;;10.32;1.38;;;14.50;75.20;;;;;;5115529;28;20355;-39
2022/09/15 20:13:13;;;;;;;1.90;1.23;;;14.50;75.40;;;;;;5115902;27;20023;-39
2022/09/15 20:15:40;;;;;;;10.27;4.25;;;14.60;75.40;;;;;;5115938;28;20027;-39
2022/09/15 20:18:06;;;;;;;3.30;1.77;;;14.60;75.40;;;;;;5115990;28;20227;-38
2022/09/15 20:20:33;;;;;;;5.75;2.72;;;14.60;75.60;;;;;;5116098;28;20055;-38
2022/09/15 20:22:59;;;;;;;3.42;0.75;;;14.60;75.70;;;;;;5116269;28;20064;-41
2022/09/15 20:25:24;;;;;;;5.57;1.00;;;14.60;75.80;;;;;;5116185;28;20106;-39
2022/09/15 20:27:53;;;;;;;3.20;0.88;;;14.60;75.90;;;;;;5114677;28;20023;-39
2022/09/15 20:30:18;;;;;;;6.70;1.98;;;14.50;76.20;;;;;;5116029;28;20371;-38
2022/09/15 20:32:45;;;;;;;6.28;1.00;;;14.50;76.40;;;;;;5116172;28;20020;-38
2022/09/15 20:35:11;;;;;;;1.50;0.77;;;14.50;76.40;;;;;;5115151;28;20019;-39
2022/09/15 20:37:37;;;;;;;6.78;1.08;;;14.50;76.40;;;;;;5115629;28;20023;-38
2022/09/15 20:40:05;;;;;;;3.72;1.08;;;14.50;76.60;;;;;;5114859;28;20046;-38
2022/09/15 20:42:30;;;;;;;2.42;0.60;;;14.50;76.90;;;;;;5115048;28;20080;-38
2022/09/15 20:44:56;;;;;;;3.55;0.80;;;14.40;77.60;;;;;;5115062;28;20024;-38
2022/09/15 20:47:21;;;;;;;3.72;1.08;;;14.30;78.40;;;;;;5114781;28;20023;-39
2022/09/15 20:49:47;;;;;;;2.00;0.70;;;14.10;79.10;;;;;;5114006;28;20027;-38
2022/09/15 20:52:13;;;;;;;3.03;0.93;;;14.10;79.80;;;;;;5114919;28;20027;-41
2022/09/15 20:54:38;;;;;;;4.03;0.75;;;14.00;80.40;;;;;;5112981;28;20027;-39
2022/09/15 20:57:04;;;;;;;1.67;0.52;;;14.00;80.80;;;;;;5113265;28;20032;-40
2022/09/15 20:59:30;;;;;;;5.47;1.10;;;14.00;80.70;;;;;;5113234;28;20030;-38
2022/09/15 21:01:55;;;;;;;4.25;1.00;;;13.90;80.80;;;;;;5114405;28;20050;-39
2022/09/15 21:04:21;;;;;;;4.25;0.70;;;13.80;81.20;;;;;;5113963;28;20048;-38
2022/09/15 21:06:47;;;;;;;3.83;1.38;;;13.80;81.50;;;;;;5114799;28;20020;-38
2022/09/15 21:09:13;;;;;;;4.18;1.27;;;13.70;81.90;;;;;;5114311;28;20092;-38
2022/09/15 21:11:41;;;;;;;5.97;1.20;;;13.70;82.20;;;;;;5095606;28;20110;-38
2022/09/15 21:14:11;;;;;;;3.95;0.80;;;13.70;82.20;;;;;;5113907;28;20032;-39
2022/09/15 21:16:37;;;;;;;2.33;1.00;;;13.60;82.40;;;;;;5112549;28;20084;-39
2022/09/15 21:19:03;;;;;;;3.60;1.30;;;13.60;82.50;;;;;;5112681;28;20517;-39
2022/09/15 21:21:30;;;;;;;4.70;1.20;;;13.60;82.30;;;;;;5112429;28;20020;-38
2022/09/15 21:24:00;;;;;;;2.60;0.70;;;13.70;81.90;;;;;;5113866;28;20070;-41
2022/09/15 21:26:29;;;;;;;2.08;0.93;;;13.80;81.00;;;;;;5114235;28;20023;-39
2022/09/15 21:28:56;;;;;;;3.95;1.63;;;13.80;80.80;;;;;;5114033;28;20023;-40
2022/09/15 21:31:24;;;;;;;4.03;1.00;;;13.80;80.50;;;;;;5114045;28;20077;-39
2022/09/15 21:33:52;;;;;;;3.78;1.02;;;13.80;80.40;;;;;;5114118;28;20030;-39
2022/09/15 21:36:23;;;;;;;2.85;1.00;;;13.80;80.20;;;;;;5114148;28;20020;-39
2022/09/15 21:38:53;;;;;;;5.05;1.15;;;13.80;79.90;;;;;;5113694;28;20028;-39
2022/09/15 21:41:21;;;;;;;0.88;0.80;;;13.90;79.80;;;;;;5112408;28;20015;-39
2022/09/15 21:43:48;;;;;;;6.28;1.05;;;13.80;80.10;;;;;;5114054;28;20459;-38
2022/09/15 21:46:18;;;;;;;5.40;1.30;;;13.90;80.20;;;;;;5113829;28;20024;-38
2022/09/15 21:48:46;;;;;;;3.38;0.70;;;13.80;80.40;;;;;;5113817;28;20046;-38
2022/09/15 21:51:13;;;;;;;0.65;0.50;;;13.80;80.40;;;;;;5113666;28;20107;-38
2022/09/15 21:53:39;;;;;;;2.30;2.10;;;13.90;80.20;;;;;;5113652;28;20020;-39
2022/09/15 21:56:07;;;;;;;5.10;1.00;;;13.90;80.70;;;;;;5113649;28;20474;-39
2022/09/15 21:58:36;;;;;;;3.78;1.10;;;13.90;80.90;;;;;;5113451;28;20383;-39
2022/09/15 22:01:10;;;;;;;3.92;1.15;;;13.90;80.50;;;;;;5113382;28;20035;-38
2022/09/15 22:03:36;;;;;;;2.47;0.90;;;13.90;80.50;;;;;;5113275;28;20047;-39
2022/09/15 22:06:02;;;;;;;4.25;1.48;;;14.10;80.10;;;;;;5112171;28;20024;-39
2022/09/15 22:08:28;;;;;;;2.20;0.93;;;14.10;79.90;;;;;;5113912;28;20486;-39
2022/09/15 22:10:58;;;;;;;7.90;2.00;;;14.10;79.90;;;;;;5113466;28;20104;-39
2022/09/15 22:13:24;;;;;;;1.08;0.73;;;14.00;79.90;;;;;;5114014;28;20528;-39
2022/09/15 22:15:50;;;;;;;4.22;0.93;;;14.00;79.90;;;;;;5113228;28;20027;-39
2022/09/15 22:18:16;;;;;;;2.67;0.70;;;13.90;79.90;;;;;;5113656;28;20031;-39
2022/09/15 22:20:42;;;;;;;12.52;1.48;;;13.90;80.40;;;;;;5113671;28;20020;-41
2022/09/15 22:23:08;;;;;;;3.75;1.00;;;13.80;80.50;;;;;;5113481;28;20126;-38
2022/09/15 22:25:33;;;;;;;3.58;1.00;;;13.90;80.60;;;;;;5111916;28;20518;-38
2022/09/15 22:27:59;;;;;;;6.65;1.42;;;13.90;80.40;;;;;;5113276;28;20020;-38
2022/09/15 22:30:25;;;;;;;3.35;1.02;;;13.80;80.70;;;;;;5111993;28;20016;-39
2022/09/15 22:32:51;;;;;;;4.13;0.90;;;13.80;80.40;;;;;;5113317;28;20089;-38
2022/09/15 22:35:17;;;;;;;3.67;1.80;;;13.80;80.60;;;;;;5095252;28;20028;-39
2022/09/15 22:37:43;;;;;;;2.80;0.90;;;13.70;80.70;;;;;;5113635;28;20120;-38
2022/09/15 22:40:09;;;;;;;3.60;0.90;;;13.70;81.00;;;;;;5113361;28;20034;-39
2022/09/15 22:42:37;;;;;;;2.20;1.08;;;13.60;81.10;;;;;;5113207;28;20051;-39
2022/09/15 22:45:04;;;;;;;3.55;1.13;;;13.80;80.70;;;;;;5112855;28;20028;-39
2022/09/15 22:47:32;;;;;;;8.00;1.48;;;13.70;80.70;;;;;;5113333;28;20367;-38
2022/09/15 22:49:58;;;;;;;3.85;1.00;;;13.70;80.90;;;;;;5113189;28;20081;-38
2022/09/15 22:52:24;;;;;;;4.00;0.90;;;13.60;81.10;;;;;;5116146;28;20024;-38
2022/09/15 22:54:49;;;;;;;3.55;1.20;;;13.60;81.20;;;;;;5117231;28;20055;-39
2022/09/15 22:57:15;;;;;;;2.92;0.85;;;13.50;81.30;;;;;;5115650;28;20020;-38
2022/09/15 22:59:41;;;;;;;3.25;1.20;;;13.50;81.60;;;;;;5117254;28;20040;-38
2022/09/15 23:02:06;;;;;;;3.85;1.20;;;13.60;81.40;;;;;;5116688;28;20020;-38
2022/09/15 23:04:32;;;;;;;3.30;1.17;;;13.50;81.30;;;;;;5116564;28;20051;-39
2022/09/15 23:06:58;;;;;;;3.60;0.65;;;13.50;81.30;;;;;;5116501;28;20019;-38
2022/09/15 23:09:23;;;;;;;2.75;1.83;;;13.40;81.30;;;;;;5115532;28;20026;-38
2022/09/15 23:11:49;;;;;;;2.30;1.23;;;13.40;81.40;;;;;;5116389;28;20015;-38
2022/09/15 23:14:16;;;;;;;3.00;0.80;;;13.30;81.60;;;;;;5117047;28;20087;-38
2022/09/15 23:16:42;;;;;;;2.55;0.77;;;13.30;81.40;;;;;;5116574;28;20042;-38
2022/09/15 23:19:10;;;;;;;1.52;0.50;;;13.30;81.50;;;;;;5116283;28;20118;-40
2022/09/15 23:21:36;;;;;;;4.43;1.00;;;13.30;81.40;;;;;;5116234;28;20479;-38
2022/09/15 23:24:02;;;;;;;6.95;1.85;;;13.30;81.50;;;;;;5116218;28;20088;-39
2022/09/15 23:26:28;;;;;;;5.20;0.80;;;13.30;81.40;;;;;;5116677;28;20038;-39
2022/09/15 23:28:53;;;;;;;5.03;1.30;;;13.30;81.60;;;;;;5116156;28;20098;-39
2022/09/15 23:31:20;;;;;;;5.10;1.00;;;13.30;81.20;;;;;;5116324;28;20058;-38
2022/09/15 23:33:46;;;;;;;5.32;1.00;;;13.30;81.30;;;;;;5116035;28;20438;-38
2022/09/15 23:36:14;;;;;;;3.53;1.20;;;13.30;81.40;;;;;;5116266;27;20047;-37
2022/09/15 23:38:42;;;;;;;3.90;1.27;;;13.30;81.20;;;;;;5114637;28;20028;-38
2022/09/15 23:41:09;;;;;;;1.67;0.60;;;13.30;81.10;;;;;;5115396;28;20440;-40
2022/09/15 23:43:35;;;;;;;6.68;1.23;;;13.30;81.10;;;;;;5115771;28;20437;-40
2022/09/15 23:46:01;;;;;;;1.98;0.98;;;13.30;81.10;;;;;;5115789;28;20024;-38
2022/09/15 23:48:27;;;;;;;4.72;1.42;;;13.30;81.10;;;;;;5115761;28;20020;-39
2022/09/15 23:50:53;;;;;;;2.58;1.63;;;13.30;81.40;;;;;;5115902;28;20415;-43
2022/09/15 23:53:19;;;;;;;2.75;0.77;;;13.30;81.40;;;;;;5115957;28;20031;-38
2022/09/15 23:55:47;;;;;;;5.80;1.08;;;13.40;81.20;;;;;;5115855;28;20015;-38
2022/09/15 23:58:13;;;;;;;1.35;0.98;;;13.40;81.20;;;;;;5115579;28;20099;-39
